Time;durP1;ratioP1;P1;durP2;ratioP2;P2;SDS_P1;SDS_P2;PMS_P1;PMS_P2;Temp;Humidity;BMP_temperature;BMP_pressure;BME280_temperature;BME280_humidity;BME280_pressure;Samples;Min_cycle;Max_cycle;Signal;HPM_P1;HPM_P2
2024/04/17 00:00:20;;;;;;;8.63;2.20;;;;;;;18.82;47.14;93582.97;5464739;26;20071;-76
2024/04/17 00:02:46;;;;;;;10.05;3.53;;;;;;;18.81;47.42;93587.03;5467759;26;20030;-76
2024/04/17 00:05:11;;;;;;;9.82;3.10;;;;;;;18.79;47.76;93589.56;5466665;26;19995;-75
2024/04/17 00:07:36;;;;;;;11.43;2.70;;;;;;;18.77;47.81;93576.19;5467412;26;19995;-74
2024/04/17 00:10:02;;;;;;;8.38;2.67;;;;;;;18.75;47.58;93564.81;5467437;26;20002;-74
2024/04/17 00:12:27;;;;;;;7.72;2.85;;;;;;;18.70;47.81;93548.94;5466395;26;20397;-75
2024/04/17 00:14:53;;;;;;;7.32;2.78;;;;;;;18.72;47.88;93559.53;5432699;26;20007;-75
2024/04/17 00:17:18;;;;;;;8.70;3.17;;;;;;;18.67;48.07;93551.97;5429039;26;20422;-75
2024/04/17 00:19:43;;;;;;;9.38;3.13;;;;;;;18.64;47.88;93553.78;5430681;26;19996;-75
2024/04/17 00:22:09;;;;;;;10.27;2.63;;;;;;;18.63;48.00;93549.47;5429276;26;20031;-75
2024/04/17 00:24:34;;;;;;;10.32;2.40;;;;;;;18.64;48.20;93545.44;5416158;26;20413;-75
2024/04/17 00:26:59;;;;;;;8.98;3.08;;;;;;;18.62;48.14;93536.09;5413567;26;19999;-75
2024/04/17 00:29:25;;;;;;;9.88;3.28;;;;;;;18.62;48.02;93530.53;5413549;26;19996;-75
2024/04/17 00:31:50;;;;;;;9.30;2.90;;;;;;;18.60;47.85;93524.72;5414287;26;20007;-75
2024/04/17 00:34:15;;;;;;;5.72;2.50;;;;;;;18.56;47.91;93528.56;5412097;26;19999;-75
2024/04/17 00:36:41;;;;;;;6.55;2.55;;;;;;;18.57;47.96;93521.69;5414332;26;20055;-75
2024/04/17 00:39:06;;;;;;;9.50;3.33;;;;;;;18.63;48.18;93515.31;5412986;26;20006;-75
2024/04/17 00:41:31;;;;;;;7.43;3.03;;;;;;;18.53;48.41;93507.34;5413768;26;20433;-75
2024/04/17 00:43:57;;;;;;;8.25;3.47;;;;;;;18.51;48.60;93495.22;5412734;26;20010;-76
2024/04/17 00:46:23;;;;;;;9.00;3.08;;;;;;;18.55;48.87;93507.56;5413526;26;20068;-76
2024/04/17 00:48:48;;;;;;;7.50;3.40;;;;;;;18.46;48.82;93496.78;5413879;26;20000;-75
2024/04/17 00:51:13;;;;;;;8.55;3.55;;;;;;;18.53;48.96;93495.47;5413192;26;19999;-77
2024/04/17 00:53:40;;;;;;;11.77;3.85;;;;;;;18.44;49.22;93501.38;5412407;26;20014;-75
2024/04/17 00:56:06;;;;;;;8.70;3.45;;;;;;;18.39;49.48;93486.25;5412326;26;20396;-75
2024/04/17 00:58:33;;;;;;;7.72;3.67;;;;;;;18.38;49.53;93489.56;5413909;26;19996;-75
2024/04/17 01:00:58;;;;;;;7.40;3.65;;;;;;;18.21;49.95;93476.59;5413169;26;19999;-74
2024/04/17 01:03:25;;;;;;;14.73;3.72;;;;;;;18.18;50.21;93483.19;5413416;26;20003;-75
2024/04/17 01:05:50;;;;;;;8.15;3.75;;;;;;;18.08;50.27;93468.13;5413432;26;19999;-76
2024/04/17 01:08:16;;;;;;;8.13;3.97;;;;;;;18.05;50.47;93477.50;5412336;26;20002;-74
2024/04/17 01:10:41;;;;;;;7.20;3.53;;;;;;;18.07;50.65;93466.63;5412396;26;19999;-76
2024/04/17 01:13:06;;;;;;;9.30;4.32;;;;;;;18.09;50.68;93463.31;5409712;26;20006;-76
2024/04/17 01:15:32;;;;;;;8.68;3.65;;;;;;;18.07;50.51;93446.41;5413974;26;20315;-75
2024/04/17 01:17:58;;;;;;;9.52;3.67;;;;;;;18.07;50.50;93454.75;5412448;26;19999;-75
2024/04/17 01:20:24;;;;;;;7.82;3.70;;;;;;;17.97;50.77;93451.56;5413353;26;19995;-75
2024/04/17 01:22:49;;;;;;;7.40;3.50;;;;;;;17.91;50.93;93437.72;5412199;26;20077;-74
2024/04/17 01:25:14;;;;;;;7.10;3.60;;;;;;;17.94;50.85;93463.72;5412956;26;20030;-75
2024/04/17 01:27:40;;;;;;;6.88;3.33;;;;;;;17.98;50.81;93448.25;5412921;26;20008;-76
2024/04/17 01:30:07;;;;;;;8.13;3.50;;;;;;;17.88;51.10;93444.31;5412163;26;19995;-75
2024/04/17 01:32:32;;;;;;;7.50;4.47;;;;;;;17.80;51.58;93459.31;5413447;26;19991;-75
2024/04/17 01:34:58;;;;;;;7.60;3.72;;;;;;;17.77;51.70;93456.28;5411316;26;20006;-74
2024/04/17 01:37:23;;;;;;;11.25;3.58;;;;;;;17.65;51.86;93445.75;5412699;26;20014;-76
2024/04/17 01:39:48;;;;;;;9.15;3.83;;;;;;;17.57;52.22;93458.72;5412668;26;20010;-76
2024/04/17 01:42:14;;;;;;;11.48;3.67;;;;;;;17.48;52.66;93435.53;5413489;26;20333;-75
2024/04/17 01:44:39;;;;;;;8.27;3.72;;;;;;;17.50;52.52;93432.25;5413436;26;19987;-74
2024/04/17 01:47:04;;;;;;;13.48;4.00;;;;;;;17.42;52.77;93443.16;5412767;26;20000;-75
2024/04/17 01:49:30;;;;;;;9.63;3.35;;;;;;;17.29;52.85;93425.63;5413125;26;19995;-74
2024/04/17 01:51:55;;;;;;;8.68;3.42;;;;;;;17.28;53.04;93418.56;5411745;26;20003;-75
2024/04/17 01:54:20;;;;;;;9.55;3.10;;;;;;;17.24;53.39;93427.91;5413477;26;20566;-75
2024/04/17 01:56:46;;;;;;;6.57;3.15;;;;;;;17.30;53.17;93418.78;5411395;26;19991;-75
2024/04/17 01:59:11;;;;;;;8.77;3.38;;;;;;;17.36;52.70;93411.16;5413066;26;19995;-75
2024/04/17 02:01:36;;;;;;;7.82;3.15;;;;;;;17.31;52.67;93412.72;5411440;26;20282;-75
2024/04/17 02:04:02;;;;;;;8.85;3.22;;;;;;;17.34;52.58;93406.13;5412958;26;19995;-74
2024/04/17 02:06:27;;;;;;;7.30;3.63;;;;;;;17.28;52.74;93380.44;5412588;26;20011;-75
2024/04/17 02:08:53;;;;;;;10.15;3.53;;;;;;;17.37;52.66;93391.19;5412062;26;20006;-75
2024/04/17 02:11:18;;;;;;;10.55;3.30;;;;;;;17.37;52.78;93393.97;5412202;26;20006;-75
2024/04/17 02:13:43;;;;;;;8.95;3.90;;;;;;;17.38;52.66;93394.75;5410944;26;20000;-75
2024/04/17 02:16:09;;;;;;;8.90;3.80;;;;;;;17.40;52.67;93390.16;5413022;26;20327;-75
2024/04/17 02:18:34;;;;;;;8.75;3.58;;;;;;;17.48;52.39;93390.34;5409292;26;19992;-75
2024/04/17 02:21:01;;;;;;;7.65;3.58;;;;;;;17.48;52.29;93393.13;5412578;26;19995;-75
2024/04/17 02:23:28;;;;;;;8.82;3.10;;;;;;;17.50;52.23;93393.38;5411267;26;20000;-75
2024/04/17 02:25:54;;;;;;;11.55;3.65;;;;;;;17.52;52.01;93399.91;5412641;26;20365;-75
2024/04/17 02:28:20;;;;;;;9.13;2.97;;;;;;;17.50;51.95;93402.47;5412632;26;19999;-75
2024/04/17 02:30:45;;;;;;;8.13;3.40;;;;;;;17.48;51.91;93382.00;5411195;26;19996;-74
2024/04/17 02:33:10;;;;;;;8.02;3.20;;;;;;;17.55;51.71;93395.34;5413059;26;20000;-75
2024/04/17 02:35:36;;;;;;;8.80;3.50;;;;;;;17.50;51.96;93398.94;5410994;26;20007;-75
2024/04/17 02:38:01;;;;;;;9.57;3.45;;;;;;;17.48;51.84;93382.00;5412685;26;20000;-76
2024/04/17 02:40:26;;;;;;;6.93;3.42;;;;;;;17.51;51.85;93372.66;5411003;26;20064;-77
2024/04/17 02:42:52;;;;;;;11.27;3.65;;;;;;;17.52;51.90;93374.16;5412461;26;20000;-75
2024/04/17 02:45:17;;;;;;;7.38;3.15;;;;;;;17.55;51.65;93358.44;5412007;26;20003;-76
2024/04/17 02:47:42;;;;;;;7.40;3.08;;;;;;;17.39;51.85;93332.38;5410569;26;20010;-75
2024/04/17 02:50:08;;;;;;;11.52;3.45;;;;;;;17.42;51.92;93340.41;5412351;26;20007;-75
2024/04/17 02:52:34;;;;;;;10.63;3.30;;;;;;;17.50;51.07;93349.69;5410891;26;20018;-76
2024/04/17 02:55:02;;;;;;;9.55;3.53;;;;;;;17.40;51.61;93361.66;5412152;26;20010;-75
2024/04/17 02:57:27;;;;;;;9.95;4.10;;;;;;;17.21;52.11;93336.56;5410430;26;20041;-75
2024/04/17 02:59:53;;;;;;;10.13;3.78;;;;;;;17.13;52.34;93311.38;5410530;26;20428;-75
2024/04/17 03:02:18;;;;;;;9.65;3.42;;;;;;;17.13;52.26;93341.16;5411681;26;20421;-75
2024/04/17 03:04:43;;;;;;;7.00;3.92;;;;;;;17.11;52.22;93335.41;5411638;26;20064;-75
2024/04/17 03:07:09;;;;;;;5.95;3.22;;;;;;;17.04;52.47;93313.75;5409842;26;20007;-75
2024/04/17 03:09:34;;;;;;;12.50;3.92;;;;;;;17.01;52.64;93323.84;5410710;26;19991;-76
2024/04/17 03:11:59;;;;;;;8.98;3.80;;;;;;;17.01;52.26;93314.78;5410242;26;19996;-76
2024/04/17 03:14:25;;;;;;;8.43;3.67;;;;;;;17.12;52.30;93314.69;5410273;26;20011;-74
2024/04/17 03:16:50;;;;;;;10.00;3.40;;;;;;;17.11;52.32;93338.19;5411846;26;19996;-75
2024/04/17 03:19:16;;;;;;;8.60;3.78;;;;;;;17.11;52.49;93352.81;5410963;26;20007;-75
2024/04/17 03:21:41;;;;;;;8.00;3.15;;;;;;;17.09;52.52;93338.69;5411365;26;20003;-74
2024/04/17 03:24:06;;;;;;;7.85;3.65;;;;;;;17.03;52.38;93323.34;5410888;26;20102;-74
2024/04/17 03:26:32;;;;;;;10.63;4.05;;;;;;;17.08;51.92;93342.72;5410693;26;20006;-75
2024/04/17 03:28:57;;;;;;;7.43;3.75;;;;;;;17.16;51.48;93342.94;5412130;26;20002;-74
2024/04/17 03:31:23;;;;;;;9.88;3.95;;;;;;;17.16;51.46;93346.47;5408790;26;20023;-75
2024/04/17 03:33:48;;;;;;;12.85;4.72;;;;;;;17.23;51.00;93309.78;5411624;26;19995;-76
2024/04/17 03:36:13;;;;;;;6.55;4.10;;;;;;;17.18;50.18;93337.59;5410517;26;20028;-75
2024/04/17 03:38:39;;;;;;;7.78;3.92;;;;;;;17.25;50.96;93343.31;5411506;26;20395;-75
2024/04/17 03:41:04;;;;;;;8.50;4.43;;;;;;;17.25;49.80;93331.47;5408819;26;19999;-75
2024/04/17 03:43:29;;;;;;;9.98;4.72;;;;;;;17.28;49.09;93347.09;5411482;26;20391;-73
2024/04/17 03:45:55;;;;;;;10.80;3.63;;;;;;;17.38;48.05;93342.72;5410550;26;20008;-73
2024/04/17 03:48:20;;;;;;;7.75;3.90;;;;;;;17.30;48.35;93319.56;5410753;26;20411;-73
2024/04/17 03:50:46;;;;;;;10.95;4.15;;;;;;;17.33;48.47;93326.88;5409128;26;19999;-73
2024/04/17 03:53:11;;;;;;;10.90;4.68;;;;;;;17.33;49.42;93334.44;5410131;26;19996;-74
2024/04/17 03:55:36;;;;;;;11.35;4.85;;;;;;;17.36;49.86;93327.84;5411881;26;20129;-74
2024/04/17 03:58:02;;;;;;;7.82;3.55;;;;;;;17.43;49.04;93341.91;5409679;26;20415;-73
2024/04/17 04:00:27;;;;;;;10.02;4.30;;;;;;;17.46;48.51;93338.09;5413651;26;20010;-73
2024/04/17 04:02:52;;;;;;;10.48;3.97;;;;;;;17.55;48.54;93341.78;5413558;26;20018;-74
2024/04/17 04:05:18;;;;;;;11.60;4.47;;;;;;;17.56;50.02;93323.88;5415246;26;20506;-73
2024/04/17 04:07:43;;;;;;;8.80;4.13;;;;;;;17.52;50.49;93332.47;5414273;26;19995;-74
2024/04/17 04:10:08;;;;;;;10.30;4.13;;;;;;;17.54;50.02;93352.16;5413916;26;20372;-76
2024/04/17 04:12:34;;;;;;;9.85;3.78;;;;;;;17.55;49.42;93325.13;5414602;26;20014;-76
2024/04/17 04:14:59;;;;;;;11.02;4.15;;;;;;;17.54;49.64;93327.16;5412906;26;19995;-74
2024/04/17 04:17:24;;;;;;;10.05;3.90;;;;;;;17.52;48.85;93344.34;5414776;26;19999;-74
2024/04/17 04:19:50;;;;;;;10.57;2.80;;;;;;;17.50;48.27;93338.56;5412801;26;20076;-74
2024/04/17 04:22:15;;;;;;;8.65;2.75;;;;;;;17.44;48.09;93337.13;5412321;26;20027;-74
2024/04/17 04:24:41;;;;;;;4.78;2.53;;;;;;;17.51;48.40;93365.06;5414019;26;20064;-74
2024/04/17 04:27:09;;;;;;;8.18;3.20;;;;;;;17.42;48.60;93326.50;5413753;26;20142;-74
2024/04/17 04:29:35;;;;;;;9.63;2.78;;;;;;;17.36;49.30;93323.03;5414908;26;20000;-75
2024/04/17 04:32:01;;;;;;;9.45;3.28;;;;;;;17.33;49.85;93354.63;5413442;26;20072;-75
2024/04/17 04:34:26;;;;;;;5.60;2.35;;;;;;;17.27;50.76;93315.06;5414713;26;20556;-74
2024/04/17 04:36:51;;;;;;;11.32;3.85;;;;;;;17.13;52.10;93346.72;5412407;26;19995;-74
2024/04/17 04:39:17;;;;;;;6.68;2.58;;;;;;;17.04;52.54;93333.19;5414334;26;20000;-74
2024/04/17 04:41:42;;;;;;;10.63;2.75;;;;;;;16.96;53.04;93338.53;5412545;26;20113;-75
2024/04/17 04:44:07;;;;;;;4.00;3.00;;;;;;;16.89;53.65;93347.44;5413659;26;20403;-74
2024/04/17 04:46:33;;;;;;;7.72;2.90;;;;;;;16.82;53.32;93350.78;5414367;26;19999;-75
2024/04/17 04:48:58;;;;;;;9.10;2.80;;;;;;;16.75;53.85;93348.56;5413401;26;20003;-74
2024/04/17 04:51:23;;;;;;;7.32;2.33;;;;;;;16.84;52.00;93365.63;5413570;26;20317;-74
2024/04/17 04:53:49;;;;;;;8.00;2.97;;;;;;;16.80;52.77;93361.59;5412805;26;19999;-74
2024/04/17 04:56:14;;;;;;;5.53;2.83;;;;;;;16.82;52.51;93378.53;5414250;26;19996;-74
2024/04/17 04:58:42;;;;;;;7.18;2.42;;;;;;;16.87;51.97;93386.81;5412261;26;20321;-74
2024/04/17 05:01:07;;;;;;;6.63;2.55;;;;;;;16.80;53.22;93353.28;5413675;26;20010;-74
2024/04/17 05:03:33;;;;;;;5.63;2.40;;;;;;;16.77;52.98;93348.78;5382155;26;19995;-74
2024/04/17 05:05:58;;;;;;;5.88;2.78;;;;;;;16.71;53.47;93334.94;5410812;26;20011;-74
2024/04/17 05:08:23;;;;;;;8.82;3.60;;;;;;;16.69;53.17;93335.44;5411421;26;19995;-75
2024/04/17 05:10:49;;;;;;;6.28;3.00;;;;;;;16.69;53.74;93348.56;5411218;26;19999;-74
2024/04/17 05:13:14;;;;;;;9.50;2.95;;;;;;;16.73;54.38;93358.13;5412247;26;20024;-75
2024/04/17 05:15:40;;;;;;;9.48;3.38;;;;;;;16.71;54.83;93363.44;5410930;26;20003;-75
2024/04/17 05:18:05;;;;;;;5.93;2.78;;;;;;;16.63;56.00;93359.69;5412218;26;19995;-74
2024/04/17 05:20:31;;;;;;;8.82;3.17;;;;;;;16.63;56.82;93347.81;5411390;26;20325;-73
2024/04/17 05:22:56;;;;;;;6.80;3.08;;;;;;;16.57;57.22;93330.47;5413343;26;19996;-73
2024/04/17 05:25:21;;;;;;;6.35;3.45;;;;;;;16.48;58.25;93355.75;5413395;26;20002;-75
2024/04/17 05:27:47;;;;;;;7.53;3.40;;;;;;;16.36;58.18;93339.19;5413387;26;20291;-74
2024/04/17 05:30:12;;;;;;;9.80;4.53;;;;;;;16.25;58.86;93330.16;5413582;26;19991;-74
2024/04/17 05:32:38;;;;;;;10.05;3.88;;;;;;;16.13;59.74;93329.47;5412778;26;20076;-73
2024/04/17 05:35:04;;;;;;;10.35;3.70;;;;;;;15.97;60.68;93299.81;5413942;26;20007;-72
2024/04/17 05:37:30;;;;;;;6.45;3.50;;;;;;;15.94;59.93;93312.66;5412686;26;20137;-74
2024/04/17 05:39:56;;;;;;;6.95;3.40;;;;;;;15.85;60.68;93316.50;5414334;26;20384;-74
2024/04/17 05:42:21;;;;;;;6.95;3.25;;;;;;;15.85;60.38;93324.06;5412570;26;20015;-74
2024/04/17 05:44:46;;;;;;;6.38;3.53;;;;;;;15.80;60.98;93336.66;5413765;26;19999;-74
2024/04/17 05:47:12;;;;;;;6.43;3.17;;;;;;;15.78;59.99;93319.81;5413746;26;19998;-74
2024/04/17 05:49:37;;;;;;;7.75;3.60;;;;;;;15.70;60.95;93338.19;5412938;26;20496;-74
2024/04/17 05:52:03;;;;;;;8.75;5.07;;;;;;;15.75;61.39;93320.81;5413323;26;19996;-74
2024/04/17 05:54:28;;;;;;;9.20;4.82;;;;;;;15.70;61.68;93320.81;5410376;26;20021;-75
2024/04/17 05:56:54;;;;;;;10.88;4.60;;;;;;;15.72;61.50;93304.47;5413646;26;19991;-74
2024/04/17 05:59:19;;;;;;;8.50;4.65;;;;;;;15.74;61.09;93316.53;5412160;26;20068;-73
2024/04/17 06:01:44;;;;;;;5.90;4.50;;;;;;;15.66;61.26;93310.78;5412177;26;20427;-75
2024/04/17 06:04:10;;;;;;;6.93;5.32;;;;;;;15.64;61.54;93326.38;5412868;26;19991;-74
2024/04/17 06:06:36;;;;;;;8.77;5.10;;;;;;;15.64;61.64;93329.91;5412907;26;20054;-73
2024/04/17 06:09:01;;;;;;;7.60;3.95;;;;;;;15.63;61.17;93324.88;5413370;26;20463;-75
2024/04/17 06:11:26;;;;;;;3.92;3.35;;;;;;;15.65;60.54;93325.91;5412279;26;20468;-75
2024/04/17 06:13:52;;;;;;;6.55;4.13;;;;;;;15.76;60.48;93336.16;5413320;26;19991;-75
2024/04/17 06:16:17;;;;;;;7.93;3.60;;;;;;;15.78;58.91;93330.13;5410107;26;20003;-74
2024/04/17 06:18:43;;;;;;;8.60;3.67;;;;;;;15.78;60.22;93335.69;5413762;26;19991;-75
2024/04/17 06:21:08;;;;;;;5.40;3.58;;;;;;;15.90;60.25;93332.34;5411476;26;20022;-74
2024/04/17 06:23:33;;;;;;;6.72;3.65;;;;;;;15.98;59.85;93329.03;5412577;26;20009;-74
2024/04/17 06:25:59;;;;;;;6.00;3.08;;;;;;;16.15;58.52;93310.31;5412893;26;20068;-74
2024/04/17 06:28:24;;;;;;;5.72;2.92;;;;;;;16.14;58.50;93308.78;5412036;26;19995;-73
2024/04/17 06:30:50;;;;;;;4.88;3.20;;;;;;;16.16;57.93;93309.78;5413069;26;19992;-75
2024/04/17 06:33:15;;;;;;;6.13;2.53;;;;;;;16.31;57.12;93290.03;5409888;26;20406;-73
2024/04/17 06:35:41;;;;;;;3.42;2.17;;;;;;;16.29;55.11;93325.88;5411261;26;19996;-73
2024/04/17 06:38:06;;;;;;;4.70;2.55;;;;;;;16.37;55.27;93312.19;5411666;26;20006;-74
2024/04/17 06:40:31;;;;;;;4.75;2.63;;;;;;;16.39;54.57;93312.44;5412760;26;19995;-74
2024/04/17 06:42:57;;;;;;;5.25;2.30;;;;;;;16.47;53.98;93316.16;5411850;26;19996;-74
2024/04/17 06:45:22;;;;;;;3.53;2.15;;;;;;;16.53;53.90;93316.13;5412936;26;20004;-73
2024/04/17 06:47:48;;;;;;;3.63;2.63;;;;;;;16.52;54.17;93326.47;5410911;26;20093;-74
2024/04/17 06:50:13;;;;;;;5.63;2.10;;;;;;;16.46;54.59;93306.34;5411774;26;19992;-74
2024/04/17 06:52:38;;;;;;;4.03;1.70;;;;;;;16.53;53.85;93302.25;5412530;26;20587;-73
2024/04/17 06:55:04;;;;;;;5.15;2.30;;;;;;;16.54;54.25;93318.38;5409844;26;20425;-74
2024/04/17 06:57:29;;;;;;;3.53;1.63;;;;;;;16.53;53.56;93305.78;5412655;26;20024;-73
2024/04/17 06:59:55;;;;;;;4.18;2.13;;;;;;;16.52;54.31;93320.19;5411214;26;19988;-74
2024/04/17 07:02:20;;;;;;;3.00;1.77;;;;;;;16.56;53.39;93362.25;5412251;26;20425;-74
2024/04/17 07:04:46;;;;;;;2.30;1.10;;;;;;;16.52;50.06;93276.56;5411644;26;20003;-75
2024/04/17 07:07:11;;;;;;;4.03;1.33;;;;;;;16.58;50.76;93304.25;5412363;26;20486;-75
2024/04/17 07:09:36;;;;;;;1.90;0.90;;;;;;;16.61;49.88;93309.50;5411914;26;20008;-74
2024/04/17 07:12:03;;;;;;;3.55;1.10;;;;;;;16.64;49.88;93282.78;5411016;26;19995;-74
2024/04/17 07:14:28;;;;;;;1.77;0.77;;;;;;;16.63;49.98;93295.13;5412077;26;20674;-74
2024/04/17 07:16:54;;;;;;;2.15;0.70;;;;;;;16.58;50.44;93301.47;5411206;26;20117;-74
2024/04/17 07:19:21;;;;;;;4.18;0.77;;;;;;;16.55;50.76;93297.69;5410682;26;20064;-74
2024/04/17 07:21:46;;;;;;;2.78;0.95;;;;;;;16.48;50.90;93276.06;5410336;26;20002;-72
2024/04/17 07:24:12;;;;;;;5.28;0.90;;;;;;;16.46;51.95;93279.38;5412792;26;19992;-75
2024/04/17 07:26:37;;;;;;;1.25;0.80;;;;;;;16.48;52.19;93300.28;5411973;26;20016;-74
2024/04/17 07:29:02;;;;;;;4.15;1.10;;;;;;;16.43;52.49;93297.03;5412282;26;20022;-75
2024/04/17 07:31:28;;;;;;;2.20;1.38;;;;;;;16.39;53.20;93302.09;5412438;26;20410;-75
2024/04/17 07:33:53;;;;;;;4.88;1.20;;;;;;;16.28;53.16;93307.69;5412608;26;20004;-76
2024/04/17 07:36:18;;;;;;;2.10;1.00;;;;;;;16.16;54.10;93284.09;5415642;26;20018;-74
2024/04/17 07:38:47;;;;;;;3.80;1.50;;;;;;;16.06;54.88;93278.09;5414105;26;19995;-74
2024/04/17 07:41:12;;;;;;;3.17;1.60;;;;;;;15.95;55.47;93278.16;5415948;26;20003;-75
2024/04/17 07:43:37;;;;;;;2.65;0.85;;;;;;;15.87;55.87;93297.31;5413722;26;20027;-74
2024/04/17 07:46:03;;;;;;;2.58;1.10;;;;;;;15.83;55.81;93285.03;5415298;26;20020;-75
2024/04/17 07:48:29;;;;;;;2.83;0.90;;;;;;;15.74;55.33;93266.66;5415002;26;20000;-74
2024/04/17 07:50:54;;;;;;;2.20;0.95;;;;;;;15.83;55.34;93285.78;5414288;26;20068;-74
2024/04/17 07:53:20;;;;;;;3.40;1.30;;;;;;;15.90;55.39;93273.41;5413671;26;20383;-75
2024/04/17 07:55:45;;;;;;;3.63;1.52;;;;;;;15.90;55.82;93281.72;5413636;26;19995;-74
2024/04/17 07:58:10;;;;;;;3.08;1.25;;;;;;;15.90;55.98;93271.38;5415500;26;19996;-74
2024/04/17 08:00:37;;;;;;;2.30;1.30;;;;;;;16.01;55.73;93267.81;5413500;26;20011;-75
2024/04/17 08:03:03;;;;;;;3.10;1.30;;;;;;;15.97;55.46;93272.09;5415062;26;19999;-74
2024/04/17 08:05:28;;;;;;;2.67;1.40;;;;;;;15.91;55.54;93274.91;5414354;26;20007;-74
2024/04/17 08:07:54;;;;;;;4.13;1.45;;;;;;;15.88;55.23;93262.06;5414432;26;20056;-74
2024/04/17 08:10:19;;;;;;;1.77;0.85;;;;;;;16.02;54.14;93263.75;5415288;26;20010;-74
2024/04/17 08:12:47;;;;;;;1.60;0.80;;;;;;;16.08;53.66;93267.25;5413567;26;20007;-74
2024/04/17 08:15:13;;;;;;;1.83;0.88;;;;;;;16.17;52.54;93266.97;5415012;26;20011;-74
2024/04/17 08:17:39;;;;;;;2.67;0.70;;;;;;;16.28;51.94;93274.44;5413161;26;20014;-75
2024/04/17 08:20:05;;;;;;;1.05;0.52;;;;;;;16.35;50.93;93256.50;5413390;26;20569;-74
2024/04/17 08:22:30;;;;;;;2.08;0.47;;;;;;;16.48;50.23;93278.09;5413483;26;19995;-75
2024/04/17 08:24:55;;;;;;;2.40;0.90;;;;;;;16.53;50.10;93283.59;5414776;26;20014;-75
2024/04/17 08:27:21;;;;;;;2.63;0.82;;;;;;;16.61;50.49;93294.88;5414903;26;20007;-74
2024/04/17 08:29:46;;;;;;;3.13;1.00;;;;;;;16.70;49.86;93308.44;5413951;26;20329;-76
2024/04/17 08:32:12;;;;;;;1.42;0.75;;;;;;;16.68;49.23;93281.19;5415319;26;20072;-75
2024/04/17 08:34:37;;;;;;;1.70;0.70;;;;;;;16.69;49.14;93293.81;5413479;26;19991;-74
2024/04/17 08:37:02;;;;;;;3.25;0.68;;;;;;;16.73;49.27;93285.97;5415180;26;19991;-75
2024/04/17 08:39:28;;;;;;;0.73;0.50;;;;;;;16.75;48.79;93306.94;5411961;26;19999;-74
2024/04/17 08:42:04;;;;;;;3.38;0.80;;;;;;;16.81;49.09;93277.13;5414556;26;20007;-75
2024/04/17 08:44:30;;;;;;;2.42;0.95;;;;;;;16.80;49.41;93258.94;5413811;26;20041;-74
2024/04/17 08:46:56;;;;;;;1.15;0.70;;;;;;;16.82;49.37;93257.16;5412239;26;20003;-75
2024/04/17 08:49:21;;;;;;;2.65;0.70;;;;;;;16.98;48.36;93255.53;5412848;26;20354;-74
2024/04/17 08:51:47;;;;;;;2.05;0.80;;;;;;;17.07;47.40;93251.63;5412921;26;20010;-74
2024/04/17 08:54:13;;;;;;;2.17;0.60;;;;;;;17.16;47.09;93257.59;5414819;26;20065;-74
2024/04/17 08:56:39;;;;;;;1.92;0.60;;;;;;;17.23;46.55;93243.13;5411485;26;19999;-75
2024/04/17 08:59:05;;;;;;;1.88;0.98;;;;;;;17.38;47.24;93236.44;5414243;26;19992;-74
2024/04/17 09:01:32;;;;;;;3.58;0.80;;;;;;;17.44;46.80;93237.88;5413162;26;20459;-75
2024/04/17 09:03:59;;;;;;;1.27;0.80;;;;;;;17.61;45.41;93226.56;5413881;26;20019;-74
2024/04/17 09:06:26;;;;;;;2.10;0.73;;;;;;;17.74;45.46;93210.00;5414104;26;20011;-75
2024/04/17 09:08:52;;;;;;;4.43;0.93;;;;;;;17.90;45.83;93205.50;5411154;26;19999;-75
2024/04/17 09:11:17;;;;;;;3.42;1.38;;;;;;;18.09;45.79;93204.72;5414316;26;20006;-74
2024/04/17 09:13:42;;;;;;;3.20;1.35;;;;;;;18.23;45.58;93204.25;5412526;26;19991;-75
2024/04/17 09:16:08;;;;;;;4.28;1.60;;;;;;;18.37;45.61;93193.19;5413953;26;19996;-75
2024/04/17 09:18:33;;;;;;;4.93;2.33;;;;;;;18.50;45.85;93202.31;5412795;26;20010;-74
2024/04/17 09:21:00;;;;;;;7.28;1.98;;;;;;;18.56;45.70;93208.53;5414206;26;20046;-75
2024/04/17 09:23:25;;;;;;;3.30;1.15;;;;;;;18.83;43.60;93206.63;5413247;26;20358;-75
2024/04/17 09:25:50;;;;;;;1.33;0.70;;;;;;;18.97;42.86;93204.59;5413351;26;20000;-76
2024/04/17 09:28:16;;;;;;;3.85;0.80;;;;;;;19.00;42.36;93216.72;5412574;26;19995;-75
2024/04/17 09:30:42;;;;;;;3.03;0.90;;;;;;;18.97;43.13;93195.50;5412890;26;19999;-75
2024/04/17 09:33:08;;;;;;;6.25;0.90;;;;;;;19.04;43.54;93220.69;5413897;26;20003;-75
2024/04/17 09:35:36;;;;;;;1.17;0.70;;;;;;;19.21;42.07;93202.91;5413058;26;20498;-75
2024/04/17 09:38:02;;;;;;;1.45;0.80;;;;;;;19.33;41.43;93216.09;5412318;26;20008;-75
2024/04/17 09:40:28;;;;;;;2.03;1.00;;;;;;;19.34;41.77;93225.22;5413041;26;20421;-74
2024/04/17 09:42:56;;;;;;;3.20;1.02;;;;;;;19.40;41.88;93219.53;5411399;26;20072;-75
2024/04/17 09:45:24;;;;;;;2.80;1.15;;;;;;;19.52;41.68;93207.63;5412071;26;19999;-75
2024/04/17 09:47:51;;;;;;;3.67;1.00;;;;;;;19.63;42.11;93195.53;5412841;26;20125;-75
2024/04/17 09:50:21;;;;;;;2.42;1.25;;;;;;;19.66;42.56;93202.06;5411958;26;20183;-75
2024/04/17 09:52:52;;;;;;;3.08;1.23;;;;;;;19.83;41.61;93202.47;5410819;26;20628;-75
2024/04/17 09:55:20;;;;;;;4.65;1.70;;;;;;;19.86;42.39;93202.13;5413777;26;20006;-75
2024/04/17 09:57:47;;;;;;;2.63;1.20;;;;;;;19.76;42.89;93184.34;5409566;26;19999;-75
2024/04/17 10:00:13;;;;;;;8.30;1.83;;;;;;;19.72;42.83;93194.31;5411288;26;20011;-75
2024/04/17 10:02:39;;;;;;;9.77;1.90;;;;;;;19.66;43.57;93183.28;5411801;26;20067;-75
2024/04/17 10:05:05;;;;;;;9.30;1.60;;;;;;;19.73;43.39;93177.09;5410265;26;20023;-74
2024/04/17 10:07:31;;;;;;;8.80;1.52;;;;;;;19.73;43.43;93171.50;5411878;26;20167;-75
2024/04/17 10:09:56;;;;;;;8.88;1.40;;;;;;;19.89;42.95;93175.19;5410324;26;20011;-75
2024/04/17 10:12:22;;;;;;;4.45;1.17;;;;;;;20.01;42.94;93184.81;5413190;26;20000;-75
2024/04/17 10:14:48;;;;;;;4.05;1.58;;;;;;;19.96;43.21;93188.50;5411830;26;20461;-73
2024/04/17 10:17:13;;;;;;;8.60;1.50;;;;;;;19.95;43.27;93206.50;5381845;26;20424;-75
2024/04/17 10:19:49;;;;;;;6.68;1.60;;;;;;;19.94;43.31;93193.09;5412604;26;20286;-74
2024/04/17 10:22:16;;;;;;;5.60;1.52;;;;;;;20.09;43.44;93176.56;5412201;26;20011;-75
2024/04/17 10:24:42;;;;;;;8.10;3.38;;;;;;;20.29;43.25;93170.25;5413973;26;19995;-76
2024/04/17 10:27:08;;;;;;;4.55;1.88;;;;;;;20.61;43.69;93174.84;5411956;26;20004;-74
2024/04/17 10:29:33;;;;;;;3.38;1.55;;;;;;;20.74;43.44;93162.84;5413654;26;20465;-74
2024/04/17 10:31:59;;;;;;;6.70;2.10;;;;;;;20.99;43.26;93177.19;5411934;26;20003;-74
2024/04/17 10:34:44;;;;;;;8.63;2.22;;;;;;;21.32;42.48;93165.16;5413565;26;20061;-74
2024/04/17 10:37:10;;;;;;;5.40;2.20;;;;;;;21.48;42.40;93171.59;5412925;26;20007;-74
2024/04/17 10:39:37;;;;;;;6.07;2.42;;;;;;;21.48;41.31;93174.38;5410777;26;20003;-75
2024/04/17 10:42:04;;;;;;;4.60;1.58;;;;;;;21.36;41.82;93156.44;5411560;26;20007;-75
2024/04/17 10:44:30;;;;;;;5.00;1.55;;;;;;;21.20;41.53;93141.59;5411909;26;20006;-75
2024/04/17 10:47:03;;;;;;;3.55;1.50;;;;;;;21.28;41.58;93150.78;5413429;26;19995;-75
2024/04/17 10:49:28;;;;;;;5.60;1.30;;;;;;;21.26;40.03;93144.97;5411688;26;20418;-74
2024/04/17 10:51:54;;;;;;;7.35;1.85;;;;;;;21.45;40.38;93133.56;5411249;26;20003;-74
2024/04/17 10:54:21;;;;;;;4.43;1.92;;;;;;;21.62;40.50;93136.63;5411900;26;20355;-75
2024/04/17 10:56:46;;;;;;;3.30;1.60;;;;;;;21.63;40.92;93126.19;5410503;26;20453;-74
2024/04/17 10:59:11;;;;;;;6.78;2.42;;;;;;;21.94;40.45;93129.84;5413091;26;20010;-75
2024/04/17 11:01:37;;;;;;;7.10;2.08;;;;;;;22.20;39.81;93128.81;5411218;26;20017;-75
2024/04/17 11:04:03;;;;;;;5.78;1.70;;;;;;;22.23;39.30;93147.28;5412781;26;19995;-75
2024/04/17 11:06:28;;;;;;;5.38;1.33;;;;;;;22.24;35.16;93151.56;5411038;26;20068;-74
2024/04/17 11:08:53;;;;;;;4.00;1.20;;;;;;;22.05;33.63;93149.09;5412518;26;20061;-75
2024/04/17 11:11:19;;;;;;;4.70;1.70;;;;;;;21.76;34.04;93156.81;5411024;26;20000;-75
2024/04/17 11:13:44;;;;;;;6.50;1.63;;;;;;;21.60;34.11;93150.41;5412268;26;19995;-74
2024/04/17 11:16:10;;;;;;;6.05;2.40;;;;;;;21.35;34.35;93158.47;5411953;26;20011;-74
2024/04/17 11:18:36;;;;;;;6.07;2.10;;;;;;;21.08;34.27;93141.13;5411387;26;20011;-75
2024/04/17 11:21:03;;;;;;;4.53;2.15;;;;;;;20.88;34.04;93158.69;5412395;26;19999;-74
2024/04/17 11:23:40;;;;;;;2.72;1.33;;;;;;;20.17;35.00;93180.91;5410497;26;20044;-75